Time;durP1;ratioP1;P1;durP2;ratioP2;P2;SDS_P1;SDS_P2;PMS_P1;PMS_P2;Temp;Humidity;BMP_temperature;BMP_pressure;BME280_temperature;BME280_humidity;BME280_pressure;Samples;Min_cycle;Max_cycle;Signal;HPM_P1;HPM_P2
2022/06/17 00:01:23;;;;;;;0.00;0.00;;;23.40;57.70;;;;;;4195017;28;20036;-64
2022/06/17 00:03:45;;;;;;;1.67;1.52;;;23.40;57.80;;;;;;4194991;28;20047;-63
2022/06/17 00:06:12;;;;;;;0.88;0.80;;;23.40;58.50;;;;;;4195226;28;20071;-64
2022/06/17 00:08:40;;;;;;;0.63;0.63;;;23.40;57.90;;;;;;4194703;28;20054;-64
2022/06/17 00:11:02;;;;;;;0.00;0.00;;;23.40;57.80;;;;;;4194628;28;20127;-64
2022/06/17 00:13:25;;;;;;;0.20;0.20;;;23.40;57.90;;;;;;4194827;28;20068;-64
2022/06/17 00:15:47;;;;;;;0.00;0.00;;;23.40;57.90;;;;;;4195137;28;20079;-64
2022/06/17 00:18:10;;;;;;;0.00;0.00;;;23.40;58.00;;;;;;4194642;28;20491;-64
2022/06/17 00:20:34;;;;;;;0.10;0.10;;;23.40;58.00;;;;;;4193816;28;20040;-64
2022/06/17 00:22:56;;;;;;;0.13;0.13;;;23.40;57.90;;;;;;4191859;28;20616;-64
2022/06/17 00:25:25;;;;;;;1.45;1.15;;;23.40;57.90;;;;;;4194713;28;20052;-64
2022/06/17 00:27:47;;;;;;;0.10;0.10;;;23.40;58.00;;;;;;4194491;28;20047;-64
2022/06/17 00:30:16;;;;;;;0.00;0.00;;;23.40;58.80;;;;;;4193176;28;20487;-63
2022/06/17 00:32:38;;;;;;;0.00;0.00;;;23.30;58.10;;;;;;4192720;28;20049;-64
2022/06/17 00:35:00;;;;;;;0.32;0.32;;;23.30;58.10;;;;;;4193124;28;20086;-63
2022/06/17 00:37:22;;;;;;;0.00;0.00;;;23.30;58.10;;;;;;4194701;28;20074;-63
2022/06/17 00:39:44;;;;;;;0.00;0.00;;;23.30;58.20;;;;;;4194325;28;20052;-64
2022/06/17 00:42:10;;;;;;;0.88;0.85;;;23.30;58.10;;;;;;4194223;28;20056;-64
2022/06/17 00:44:41;;;;;;;0.00;0.00;;;23.30;58.10;;;;;;4192511;28;20502;-63
2022/06/17 00:47:08;;;;;;;0.57;0.57;;;23.30;58.30;;;;;;4193593;28;20074;-64
2022/06/17 00:49:41;;;;;;;0.00;0.00;;;23.30;58.40;;;;;;4192517;28;20490;-64
2022/06/17 00:52:07;;;;;;;0.00;0.00;;;23.20;58.40;;;;;;4193377;28;20407;-64
2022/06/17 00:54:34;;;;;;;0.00;0.00;;;23.30;58.50;;;;;;4194576;28;20132;-64
2022/06/17 00:56:57;;;;;;;0.00;0.00;;;23.20;58.50;;;;;;4192218;28;20163;-64
2022/06/17 00:59:21;;;;;;;0.30;0.25;;;23.20;58.40;;;;;;4192678;28;20045;-64
2022/06/17 01:01:50;;;;;;;0.00;0.00;;;23.20;58.40;;;;;;4192717;28;20131;-64
2022/06/17 01:04:19;;;;;;;0.00;0.00;;;23.20;58.50;;;;;;4192920;28;20503;-64
2022/06/17 01:06:46;;;;;;;0.63;0.43;;;23.20;58.50;;;;;;4193856;28;20054;-64
2022/06/17 01:11:54;;;;;;;0.00;0.00;;;23.20;58.60;;;;;;4193922;28;20630;-64
2022/06/17 01:14:18;;;;;;;0.00;0.00;;;23.10;58.50;;;;;;4192671;28;20055;-64
2022/06/17 01:16:43;;;;;;;0.00;0.00;;;23.20;58.60;;;;;;4192244;28;20111;-64
2022/06/17 01:19:24;;;;;;;0.00;0.00;;;23.20;58.70;;;;;;4192543;28;20356;-64
2022/06/17 01:21:52;;;;;;;0.00;0.00;;;23.10;58.50;;;;;;4191966;28;20406;-64
2022/06/17 01:24:16;;;;;;;0.00;0.00;;;23.10;58.50;;;;;;4192355;28;20376;-64
2022/06/17 01:26:38;;;;;;;0.00;0.00;;;23.10;58.50;;;;;;4192471;28;20041;-64
2022/06/17 01:29:00;;;;;;;0.38;0.22;;;23.10;58.50;;;;;;4191531;28;20098;-64
2022/06/17 01:31:23;;;;;;;0.00;0.00;;;23.10;58.50;;;;;;4192181;28;20130;-64
2022/06/17 01:33:46;;;;;;;0.00;0.00;;;23.10;58.60;;;;;;4191883;28;20044;-64
2022/06/17 01:36:12;;;;;;;0.00;0.00;;;23.10;58.60;;;;;;4193451;28;20054;-64
2022/06/17 01:38:36;;;;;;;0.00;0.00;;;23.10;58.60;;;;;;4193276;28;20135;-64
2022/06/17 01:41:01;;;;;;;0.10;0.10;;;23.10;58.60;;;;;;4175498;28;20156;-63
2022/06/17 01:43:27;;;;;;;0.08;0.08;;;23.00;58.60;;;;;;4176381;28;20076;-64
2022/06/17 01:45:55;;;;;;;0.00;0.00;;;23.10;59.40;;;;;;4175107;28;20127;-64
2022/06/17 01:48:20;;;;;;;0.13;0.13;;;23.00;59.30;;;;;;4175000;28;20075;-64
2022/06/17 01:50:45;;;;;;;0.00;0.00;;;23.00;58.60;;;;;;4175413;28;20049;-64
2022/06/17 01:53:10;;;;;;;0.00;0.00;;;23.10;58.70;;;;;;4175358;28;20500;-63
2022/06/17 01:55:37;;;;;;;0.30;0.30;;;23.00;58.60;;;;;;4170411;28;20056;-64
2022/06/17 01:58:08;;;;;;;0.10;0.10;;;23.00;58.70;;;;;;4186838;28;20076;-65
2022/06/17 02:00:33;;;;;;;0.00;0.00;;;23.00;58.70;;;;;;4158989;28;20424;-64
2022/06/17 02:03:03;;;;;;;0.00;0.00;;;23.00;58.70;;;;;;4158814;28;20515;-64
2022/06/17 02:05:33;;;;;;;0.10;0.10;;;23.00;58.70;;;;;;4158467;28;20056;-65
2022/06/17 02:07:58;;;;;;;0.10;0.10;;;23.00;58.70;;;;;;4159844;28;20699;-64
2022/06/17 02:10:23;;;;;;;0.03;0.03;;;22.90;58.70;;;;;;4158325;28;20504;-64
2022/06/17 02:12:47;;;;;;;0.10;0.10;;;22.90;58.70;;;;;;4158378;28;20499;-64
2022/06/17 02:15:13;;;;;;;1.55;0.40;;;22.90;58.80;;;;;;4159971;28;20144;-64
2022/06/17 02:17:41;;;;;;;0.00;0.00;;;22.90;58.80;;;;;;4159538;28;20108;-64
2022/06/17 02:20:17;;;;;;;0.20;0.20;;;22.90;58.80;;;;;;4159239;28;20509;-64
2022/06/17 02:22:40;;;;;;;0.35;0.35;;;22.90;58.90;;;;;;4159805;28;20786;-64
2022/06/17 02:25:05;;;;;;;0.00;0.00;;;22.80;58.90;;;;;;4191140;28;20118;-64
2022/06/17 02:27:30;;;;;;;0.00;0.00;;;22.80;58.90;;;;;;4191581;28;20051;-64
2022/06/17 02:29:52;;;;;;;0.10;0.10;;;22.80;58.90;;;;;;4191354;28;20059;-64
2022/06/17 02:32:17;;;;;;;0.25;0.25;;;22.80;59.70;;;;;;4192523;28;20060;-64
2022/06/17 02:34:48;;;;;;;0.00;0.00;;;22.80;59.00;;;;;;4192572;28;20060;-64
2022/06/17 02:37:11;;;;;;;;;;;22.80;59.00;;;;;;4192766;28;20060;-64
2022/06/17 02:39:35;;;;;;;0.00;0.00;;;22.80;59.00;;;;;;4177058;28;19927;-64
2022/06/17 02:41:57;;;;;;;0.10;0.10;;;22.80;59.00;;;;;;4191019;28;20056;-64
2022/06/17 02:44:29;;;;;;;0.00;0.00;;;22.80;59.00;;;;;;4190564;28;20044;-64
2022/06/17 02:46:54;;;;;;;0.47;0.47;;;22.80;59.10;;;;;;4191043;28;20132;-64
2022/06/17 02:49:23;;;;;;;0.20;0.20;;;22.80;59.10;;;;;;4191268;28;20040;-64
2022/06/17 02:51:45;;;;;;;0.10;0.10;;;22.80;59.40;;;;;;4190727;28;20475;-64
2022/06/17 02:54:12;;;;;;;0.00;0.00;;;22.80;59.10;;;;;;4190486;28;20064;-64
2022/06/17 02:56:37;;;;;;;0.00;0.00;;;22.80;59.10;;;;;;4190363;28;20071;-64
2022/06/17 02:59:06;;;;;;;0.20;0.20;;;22.70;59.10;;;;;;4192498;28;20522;-64
2022/06/17 03:01:35;;;;;;;0.20;0.20;;;22.70;59.10;;;;;;4190743;28;20407;-63
2022/06/17 03:04:15;;;;;;;0.20;0.20;;;22.70;59.10;;;;;;4190510;28;20498;-64
2022/06/17 03:06:43;;;;;;;0.30;0.30;;;22.70;59.10;;;;;;4157709;28;20123;-64
2022/06/17 03:09:18;;;;;;;0.00;0.00;;;22.70;59.10;;;;;;4159125;28;20056;-64
2022/06/17 03:11:41;;;;;;;0.65;0.47;;;22.70;59.10;;;;;;4157890;28;20052;-64
2022/06/17 03:14:09;;;;;;;0.38;0.38;;;22.70;59.10;;;;;;4158179;28;20132;-64
2022/06/17 03:16:33;;;;;;;0.00;0.00;;;22.70;59.20;;;;;;4176326;28;20068;-63
2022/06/17 03:18:55;;;;;;;0.00;0.00;;;22.70;59.20;;;;;;4190757;28;20383;-64
2022/06/17 03:21:23;;;;;;;0.08;0.08;;;22.70;59.10;;;;;;4190633;28;20487;-64
2022/06/17 03:23:54;;;;;;;0.00;0.00;;;22.70;59.20;;;;;;4190650;28;20901;-64
2022/06/17 03:26:23;;;;;;;0.20;0.20;;;22.70;59.90;;;;;;4157714;28;20053;-64
2022/06/17 03:28:48;;;;;;;0.10;0.10;;;22.60;59.10;;;;;;4157828;28;20378;-64
2022/06/17 03:31:15;;;;;;;0.52;0.52;;;22.60;59.10;;;;;;4170783;28;20053;-64
2022/06/17 03:33:45;;;;;;;0.00;0.00;;;22.60;59.20;;;;;;4190801;28;20049;-65
2022/06/17 03:36:12;;;;;;;0.80;0.57;;;22.60;59.10;;;;;;4190453;28;20048;-64
2022/06/17 03:38:41;;;;;;;0.00;0.00;;;22.60;59.20;;;;;;4192204;28;20113;-64
2022/06/17 03:41:10;;;;;;;0.15;0.15;;;22.60;59.20;;;;;;4190164;28;20037;-64
2022/06/17 03:43:39;;;;;;;0.00;0.00;;;22.60;59.20;;;;;;4190239;28;20040;-64
2022/06/17 03:46:05;;;;;;;0.00;0.00;;;22.60;59.20;;;;;;4190337;28;20090;-64
2022/06/17 03:48:35;;;;;;;0.08;0.08;;;22.60;60.00;;;;;;4190748;28;20059;-64
2022/06/17 03:50:57;;;;;;;0.32;0.28;;;22.60;59.20;;;;;;4190360;28;20186;-64
2022/06/17 03:53:25;;;;;;;0.00;0.00;;;22.60;59.20;;;;;;4173705;28;20527;-64
2022/06/17 03:55:47;;;;;;;0.22;0.22;;;22.60;59.20;;;;;;4175728;28;20495;-64
2022/06/17 03:58:17;;;;;;;0.00;0.00;;;22.60;59.20;;;;;;4176889;28;20147;-64
2022/06/17 04:00:52;;;;;;;0.28;0.28;;;22.60;59.20;;;;;;4176913;28;20098;-63
2022/06/17 04:03:18;;;;;;;0.03;0.03;;;22.60;59.20;;;;;;4191271;28;20048;-64
2022/06/17 04:05:42;;;;;;;0.47;0.47;;;22.60;59.20;;;;;;4177009;28;20106;-64
2022/06/17 04:08:07;;;;;;;0.10;0.10;;;22.60;59.30;;;;;;4176479;28;20487;-64
2022/06/17 04:10:32;;;;;;;0.00;0.00;;;22.60;59.30;;;;;;4176934;28;20476;-64
2022/06/17 04:12:56;;;;;;;0.00;0.00;;;22.60;59.30;;;;;;4176832;28;20056;-64
2022/06/17 04:15:51;;;;;;;0.40;0.40;;;22.60;59.30;;;;;;4177874;28;20526;-63
2022/06/17 04:18:13;;;;;;;0.00;0.00;;;22.60;59.30;;;;;;4176675;28;20087;-63
2022/06/17 04:20:40;;;;;;;0.38;0.38;;;22.60;59.30;;;;;;4177112;28;20041;-63
2022/06/17 04:23:16;;;;;;;0.00;0.00;;;22.50;59.30;;;;;;4161971;28;20492;-63
2022/06/17 04:26:02;;;;;;;0.00;0.00;;;22.60;59.30;;;;;;4177879;28;20086;-63
2022/06/17 04:28:30;;;;;;;0.30;0.30;;;22.60;59.30;;;;;;4176443;28;20053;-64
2022/06/17 04:30:59;;;;;;;0.00;0.00;;;22.50;59.30;;;;;;4176305;28;20052;-64
2022/06/17 04:33:28;;;;;;;0.10;0.10;;;22.50;59.30;;;;;;4175908;28;20598;-64
2022/06/17 04:36:01;;;;;;;0.10;0.10;;;22.50;59.30;;;;;;4175951;28;20043;-63
2022/06/17 04:38:23;;;;;;;0.00;0.00;;;22.50;59.40;;;;;;4176187;28;20480;-64
2022/06/17 04:40:58;;;;;;;0.20;0.20;;;22.50;59.40;;;;;;4175967;28;20086;-64
2022/06/17 04:44:00;;;;;;;0.10;0.10;;;22.50;59.40;;;;;;4175195;28;20064;-65
2022/06/17 04:46:31;;;;;;;0.00;0.00;;;22.50;59.50;;;;;;4192272;28;20053;-66
2022/06/17 04:48:57;;;;;;;0.80;0.80;;;22.50;59.50;;;;;;4192854;28;20869;-69
2022/06/17 04:51:19;;;;;;;0.55;0.55;;;22.50;59.90;;;;;;4192470;28;20098;-65
2022/06/17 04:53:45;;;;;;;0.00;0.00;;;22.60;60.60;;;;;;4192542;28;20063;-66
2022/06/17 04:56:33;;;;;;;0.00;0.00;;;22.60;60.70;;;;;;4192812;28;20078;-66
2022/06/17 04:59:30;;;;;;;0.30;0.30;;;22.60;60.60;;;;;;4192572;28;20110;-65
2022/06/17 05:01:54;;;;;;;0.00;0.00;;;22.60;60.50;;;;;;4165811;28;20091;-65
2022/06/17 05:04:37;;;;;;;0.65;0.40;;;22.60;60.40;;;;;;4183487;28;20070;-65
2022/06/17 05:06:59;;;;;;;0.00;0.00;;;22.60;60.20;;;;;;4192925;28;20047;-66
2022/06/17 05:09:24;;;;;;;0.10;0.10;;;22.60;60.20;;;;;;4192491;28;20046;-65
2022/06/17 05:11:52;;;;;;;0.00;0.00;;;22.50;60.20;;;;;;4191977;28;20451;-66
2022/06/17 05:14:21;;;;;;;0.10;0.10;;;22.50;60.20;;;;;;4192747;28;20041;-66
2022/06/17 05:16:44;;;;;;;0.00;0.00;;;22.50;61.10;;;;;;4175698;28;20499;-66
2022/06/17 05:19:08;;;;;;;0.10;0.10;;;22.50;60.20;;;;;;4177345;28;20511;-66
2022/06/17 05:21:30;;;;;;;0.00;0.00;;;22.50;60.20;;;;;;4176047;28;20512;-66
2022/06/17 05:24:00;;;;;;;0.00;0.00;;;22.50;60.30;;;;;;4175423;28;20099;-66
2022/06/17 05:26:24;;;;;;;1.00;1.00;;;22.50;60.30;;;;;;4175474;28;20122;-66
2022/06/17 05:28:48;;;;;;;0.20;0.20;;;22.50;60.40;;;;;;4175797;28;20049;-66
2022/06/17 05:31:14;;;;;;;0.35;0.35;;;22.40;60.40;;;;;;4175761;28;20079;-66
2022/06/17 05:33:42;;;;;;;1.65;0.70;;;22.50;60.50;;;;;;4175792;28;20077;-66
2022/06/17 05:36:07;;;;;;;2.13;0.55;;;22.50;60.50;;;;;;4158850;28;20127;-67
2022/06/17 05:38:30;;;;;;;0.28;0.28;;;22.50;60.60;;;;;;4159138;28;20500;-67
2022/06/17 05:40:53;;;;;;;0.63;0.43;;;22.50;60.60;;;;;;4144511;28;20877;-67
2022/06/17 05:43:16;;;;;;;0.17;0.17;;;22.50;60.60;;;;;;4158915;28;20095;-67
2022/06/17 05:45:39;;;;;;;1.70;0.88;;;22.40;60.60;;;;;;4214384;28;20075;-67
2022/06/17 05:48:24;;;;;;;4.65;1.95;;;22.50;60.70;;;;;;4192819;28;20048;-68
2022/06/17 05:50:55;;;;;;;1.30;1.20;;;22.50;60.60;;;;;;4192280;28;20471;-68
2022/06/17 05:53:31;;;;;;;0.10;0.10;;;22.50;60.60;;;;;;4191415;28;20048;-67
2022/06/17 05:56:10;;;;;;;0.00;0.00;;;22.40;60.50;;;;;;4191290;28;20048;-67
2022/06/17 05:58:32;;;;;;;0.10;0.10;;;22.50;60.60;;;;;;4191448;28;20047;-67
2022/06/17 06:00:54;;;;;;;0.00;0.00;;;22.40;60.50;;;;;;4191827;28;20155;-67
2022/06/17 06:03:20;;;;;;;0.40;0.40;;;22.40;60.50;;;;;;4191631;28;20124;-67
2022/06/17 06:05:43;;;;;;;0.05;0.05;;;22.50;60.50;;;;;;4158568;28;20413;-67
2022/06/17 06:08:09;;;;;;;0.00;0.00;;;22.50;60.60;;;;;;4179330;28;20044;-66
2022/06/17 06:10:36;;;;;;;0.70;0.70;;;22.50;61.40;;;;;;4189652;28;20119;-67
2022/06/17 06:13:00;;;;;;;0.43;0.43;;;22.50;60.50;;;;;;4191261;28;20070;-67
2022/06/17 06:15:32;;;;;;;0.10;0.10;;;22.50;61.40;;;;;;4190964;28;20565;-67
2022/06/17 06:18:09;;;;;;;0.00;0.00;;;22.50;60.50;;;;;;4190891;28;20052;-67
2022/06/17 06:20:31;;;;;;;0.00;0.00;;;22.50;60.50;;;;;;4191054;28;20048;-67
2022/06/17 06:22:53;;;;;;;0.00;0.00;;;22.50;60.60;;;;;;4191234;28;20079;-67
2022/06/17 06:25:18;;;;;;;0.43;0.43;;;22.50;60.60;;;;;;4192700;28;20135;-67
2022/06/17 06:27:41;;;;;;;0.75;0.35;;;22.50;60.70;;;;;;4192694;28;20045;-67
2022/06/17 06:30:06;;;;;;;0.22;0.22;;;22.50;60.70;;;;;;4190637;28;20052;-67
2022/06/17 06:32:28;;;;;;;1.98;0.65;;;22.40;60.60;;;;;;4192704;28;20044;-67
2022/06/17 06:35:02;;;;;;;1.55;1.35;;;22.50;60.70;;;;;;4191106;28;20522;-67
2022/06/17 06:37:25;;;;;;;0.80;0.47;;;22.50;60.70;;;;;;4191148;28;20045;-67
2022/06/17 06:39:47;;;;;;;0.00;0.00;;;22.50;60.70;;;;;;4191103;28;20059;-66
2022/06/17 06:42:09;;;;;;;2.10;2.00;;;22.50;60.70;;;;;;4190861;28;20482;-69
2022/06/17 06:44:53;;;;;;;0.13;0.13;;;22.40;60.70;;;;;;4192122;28;20052;-67
2022/06/17 06:47:21;;;;;;;0.32;0.32;;;22.50;60.70;;;;;;4190854;28;20056;-68
2022/06/17 06:49:52;;;;;;;0.10;0.10;;;22.50;60.80;;;;;;4191038;28;20048;-66
2022/06/17 06:52:18;;;;;;;0.60;0.60;;;22.40;60.70;;;;;;4190895;28;20072;-66
2022/06/17 06:54:40;;;;;;;0.10;0.10;;;22.50;60.80;;;;;;4191294;28;21569;-67
2022/06/17 06:57:02;;;;;;;0.25;0.25;;;22.50;60.80;;;;;;4190892;28;20056;-67
2022/06/17 06:59:45;;;;;;;0.52;0.52;;;22.50;60.70;;;;;;4191881;28;20052;-67
2022/06/17 07:02:09;;;;;;;0.00;0.00;;;22.40;60.70;;;;;;4190168;28;20056;-66
2022/06/17 07:04:32;;;;;;;0.30;0.30;;;22.50;60.80;;;;;;4158638;28;20484;-67
2022/06/17 07:06:54;;;;;;;0.00;0.00;;;22.40;60.70;;;;;;4181450;28;20051;-66
2022/06/17 07:09:16;;;;;;;0.00;0.00;;;22.50;60.80;;;;;;4192273;28;20487;-67
2022/06/17 07:11:38;;;;;;;0.88;0.82;;;22.50;60.80;;;;;;4191759;28;20094;-66
2022/06/17 07:14:00;;;;;;;0.00;0.00;;;22.50;60.70;;;;;;4192195;28;20052;-67
2022/06/17 07:16:22;;;;;;;0.00;0.00;;;22.40;60.60;;;;;;4192178;28;20059;-67
2022/06/17 07:18:46;;;;;;;0.00;0.00;;;22.50;60.70;;;;;;4192252;28;20106;-67
2022/06/17 07:21:10;;;;;;;0.30;0.30;;;22.50;60.70;;;;;;4192052;28;20055;-67
2022/06/17 07:23:34;;;;;;;2.47;1.30;;;22.50;60.70;;;;;;4160462;28;20061;-67
2022/06/17 07:25:58;;;;;;;2.67;0.80;;;22.50;61.50;;;;;;4192085;28;20505;-67
2022/06/17 07:28:22;;;;;;;0.25;0.25;;;22.50;60.60;;;;;;4191587;28;20047;-66
2022/06/17 07:30:46;;;;;;;0.40;0.40;;;22.50;60.60;;;;;;4193769;28;20099;-67
2022/06/17 07:33:09;;;;;;;0.30;0.30;;;22.50;60.60;;;;;;4195072;28;20467;-67
2022/06/17 07:35:32;;;;;;;0.28;0.28;;;22.50;60.60;;;;;;4195348;28;20151;-67
2022/06/17 07:40:49;;;;;;;0.00;0.00;;;22.50;60.60;;;;;;4143343;28;20052;-67
2022/06/17 07:43:11;;;;;;;0.45;0.45;;;22.50;60.80;;;;;;4143417;28;20054;-67
2022/06/17 07:45:33;;;;;;;0.10;0.10;;;22.60;60.70;;;;;;4181572;28;20409;-67
2022/06/17 07:47:56;;;;;;;0.00;0.00;;;22.60;60.70;;;;;;4193712;28;20047;-67
2022/06/17 07:50:20;;;;;;;0.20;0.20;;;22.60;60.70;;;;;;4194818;28;20048;-67
2022/06/17 07:52:43;;;;;;;0.20;0.20;;;22.60;60.80;;;;;;4194716;28;20127;-67
2022/06/17 07:55:06;;;;;;;0.00;0.00;;;22.60;60.70;;;;;;4194880;28;20564;-67
2022/06/17 07:57:34;;;;;;;0.30;0.30;;;22.60;60.70;;;;;;4194428;28;20407;-67
2022/06/17 07:59:57;;;;;;;0.00;0.00;;;22.60;60.70;;;;;;4194776;28;20066;-67
2022/06/17 08:02:19;;;;;;;0.00;0.00;;;22.70;60.80;;;;;;4194648;28;20052;-67
2022/06/17 08:04:41;;;;;;;0.25;0.25;;;22.70;60.70;;;;;;4194610;28;20072;-66
2022/06/17 08:07:04;;;;;;;0.10;0.10;;;22.70;60.70;;;;;;4194963;28;20044;-67
2022/06/17 08:09:28;;;;;;;0.00;0.00;;;22.70;60.50;;;;;;4195024;28;20060;-67
2022/06/17 08:11:51;;;;;;;0.22;0.22;;;22.80;60.50;;;;;;4194441;28;20044;-67
2022/06/17 08:14:14;;;;;;;0.38;0.38;;;22.80;60.40;;;;;;4194805;28;20459;-67
2022/06/17 08:16:36;;;;;;;0.43;0.43;;;22.80;61.20;;;;;;4194444;28;20044;-66
2022/06/17 08:18:59;;;;;;;0.00;0.00;;;22.80;60.20;;;;;;4194343;28;20438;-67
2022/06/17 08:21:21;;;;;;;0.00;0.00;;;22.80;60.20;;;;;;4194304;28;20351;-67
2022/06/17 08:24:02;;;;;;;0.17;0.17;;;22.90;60.10;;;;;;4194137;28;20063;-67
2022/06/17 08:26:26;;;;;;;0.00;0.00;;;23.00;59.90;;;;;;4194661;28;20407;-66
2022/06/17 08:28:48;;;;;;;0.00;0.00;;;23.00;59.90;;;;;;4194556;28;20593;-67
2022/06/17 08:31:10;;;;;;;0.00;0.00;;;23.00;59.80;;;;;;4194381;28;20052;-67
2022/06/17 08:33:32;;;;;;;0.00;0.00;;;23.00;59.70;;;;;;4194310;28;20102;-67
2022/06/17 08:36:12;;;;;;;0.00;0.00;;;23.10;59.60;;;;;;4192696;28;20055;-66
2022/06/17 08:38:36;;;;;;;0.00;0.00;;;23.10;59.50;;;;;;4206169;28;20084;-67
2022/06/17 08:41:00;;;;;;;0.00;0.00;;;23.20;59.40;;;;;;4189294;28;20063;-67
2022/06/17 08:43:58;;;;;;;0.00;0.00;;;23.20;59.30;;;;;;4190137;28;20044;-67
2022/06/17 08:46:36;;;;;;;0.20;0.20;;;23.20;59.10;;;;;;4192781;28;20077;-68
2022/06/17 08:49:15;;;;;;;0.47;0.47;;;23.30;59.10;;;;;;4192568;28;20123;-67
2022/06/17 08:51:53;;;;;;;0.32;0.32;;;23.30;59.00;;;;;;4194063;28;20075;-67
2022/06/17 08:54:31;;;;;;;0.00;0.00;;;23.30;58.90;;;;;;4193613;28;20105;-67
2022/06/17 08:57:00;;;;;;;0.00;0.00;;;23.40;58.90;;;;;;4194078;28;20059;-67
2022/06/17 08:59:34;;;;;;;0.80;0.80;;;23.40;58.80;;;;;;4193850;28;20048;-67
2022/06/17 09:02:05;;;;;;;0.85;0.80;;;23.40;58.80;;;;;;4193608;28;20048;-67
2022/06/17 09:04:45;;;;;;;0.00;0.00;;;23.40;58.70;;;;;;4189447;28;20490;-67
2022/06/17 09:07:19;;;;;;;0.25;0.25;;;23.40;58.70;;;;;;4193771;28;20052;-67
2022/06/17 09:10:00;;;;;;;0.00;0.00;;;23.40;58.70;;;;;;4193652;28;20047;-67
2022/06/17 09:12:26;;;;;;;;;;;23.40;58.70;;;;;;4192301;28;20041;-67
2022/06/17 09:14:59;;;;;;;1.17;1.15;;;23.40;58.80;;;;;;4167671;28;19982;-68
2022/06/17 09:17:28;;;;;;;0.10;0.10;;;23.40;58.90;;;;;;4177407;28;20132;-67
2022/06/17 09:19:56;;;;;;;7.53;2.35;;;23.40;59.00;;;;;;4160559;28;20424;-68
2022/06/17 09:22:25;;;;;;;0.00;0.00;;;23.40;59.00;;;;;;4160644;28;20049;-67
2022/06/17 09:24:48;;;;;;;0.00;0.00;;;23.40;59.00;;;;;;4173783;28;20579;-67
2022/06/17 09:27:13;;;;;;;0.00;0.00;;;23.40;59.00;;;;;;4193553;28;20053;-67
2022/06/17 09:29:45;;;;;;;0.60;0.60;;;23.50;59.00;;;;;;4193427;28;20075;-67
2022/06/17 09:32:15;;;;;;;0.43;0.43;;;23.40;59.00;;;;;;4193145;28;20052;-67
2022/06/17 09:34:45;;;;;;;0.00;0.00;;;23.50;59.70;;;;;;4192230;28;20055;-68
2022/06/17 09:37:16;;;;;;;1.10;1.02;;;23.50;59.00;;;;;;4193195;28;20052;-68
2022/06/17 09:39:42;;;;;;;0.10;0.10;;;23.50;58.90;;;;;;4192860;28;20450;-67
2022/06/17 09:42:11;;;;;;;0.22;0.22;;;23.50;58.90;;;;;;4193414;28;20051;-67
2022/06/17 09:44:38;;;;;;;0.00;0.00;;;23.50;58.90;;;;;;4193355;28;20388;-68
2022/06/17 09:47:14;;;;;;;0.00;0.00;;;23.50;58.80;;;;;;4193048;28;20052;-68
2022/06/17 09:49:42;;;;;;;0.10;0.10;;;23.50;58.80;;;;;;4192978;28;20118;-68
2022/06/17 09:52:08;;;;;;;3.92;1.55;;;23.60;58.80;;;;;;4184721;28;20125;-68
2022/06/17 09:54:36;;;;;;;1.02;1.02;;;23.60;58.70;;;;;;4159438;28;20041;-68
2022/06/17 09:57:02;;;;;;;0.00;0.00;;;23.60;59.00;;;;;;4159944;28;20566;-68
2022/06/17 09:59:32;;;;;;;3.03;1.10;;;23.70;59.30;;;;;;4159940;28;20042;-68
2022/06/17 10:01:55;;;;;;;0.00;0.00;;;23.70;59.30;;;;;;4183950;28;20052;-68
2022/06/17 10:04:19;;;;;;;1.75;0.82;;;23.80;59.10;;;;;;4192761;28;20051;-68
2022/06/17 10:07:01;;;;;;;0.15;0.15;;;23.80;59.10;;;;;;4192947;28;20056;-68
2022/06/17 10:09:44;;;;;;;0.10;0.10;;;23.80;59.00;;;;;;4191446;28;20047;-68
2022/06/17 10:12:13;;;;;;;0.77;0.77;;;23.80;58.90;;;;;;4192396;28;20048;-68
2022/06/17 10:14:47;;;;;;;0.20;0.20;;;23.80;58.90;;;;;;4192491;28;20090;-68
2022/06/17 10:20:08;;;;;;;0.20;0.20;;;23.80;58.60;;;;;;4176070;28;20045;-69
2022/06/17 10:22:45;;;;;;;0.00;0.00;;;23.90;58.60;;;;;;4190401;28;20156;-68
2022/06/17 10:25:22;;;;;;;0.38;0.28;;;23.80;58.50;;;;;;4181678;28;20047;-68
2022/06/17 10:27:56;;;;;;;0.35;0.35;;;23.80;58.50;;;;;;4175893;28;20043;-68
2022/06/17 10:30:23;;;;;;;0.00;0.00;;;23.80;58.40;;;;;;4175952;28;20052;-67
2022/06/17 10:32:48;;;;;;;0.00;0.00;;;23.80;58.40;;;;;;4175532;28;20099;-67
2022/06/17 10:35:20;;;;;;;0.00;0.00;;;23.80;58.40;;;;;;4182521;28;20060;-67
2022/06/17 10:37:42;;;;;;;0.73;0.73;;;23.80;58.40;;;;;;4192297;28;20094;-67
2022/06/17 10:40:24;;;;;;;0.00;0.00;;;23.90;58.50;;;;;;4192037;28;20052;-68
2022/06/17 10:42:48;;;;;;;0.00;0.00;;;23.80;58.40;;;;;;4191892;28;20067;-68
2022/06/17 10:45:15;;;;;;;0.08;0.08;;;23.80;58.50;;;;;;4188077;28;20049;-68
2022/06/17 10:47:43;;;;;;;0.32;0.32;;;23.80;58.40;;;;;;4192343;28;20044;-68
2022/06/17 10:50:10;;;;;;;0.15;0.15;;;23.80;58.40;;;;;;4191587;28;20560;-68
2022/06/17 10:52:40;;;;;;;0.43;0.43;;;23.80;58.50;;;;;;4192136;28;20055;-68
2022/06/17 10:55:04;;;;;;;0.55;0.55;;;23.90;58.50;;;;;;4191211;28;20059;-68
2022/06/17 10:57:28;;;;;;;0.22;0.22;;;23.80;58.40;;;;;;4192129;28;20062;-68
2022/06/17 10:59:51;;;;;;;0.17;0.17;;;23.80;58.40;;;;;;4191855;28;20056;-68
2022/06/17 11:02:27;;;;;;;0.00;0.00;;;23.80;58.40;;;;;;4192093;28;20041;-68
2022/06/17 11:04:51;;;;;;;12.95;1.02;;;23.90;58.50;;;;;;4191379;28;20072;-68
2022/06/17 11:07:18;;;;;;;1.48;1.40;;;23.90;58.40;;;;;;4192205;28;20771;-68
2022/06/17 11:09:48;;;;;;;0.13;0.13;;;23.90;58.40;;;;;;4191852;28;20391;-68
2022/06/17 11:12:19;;;;;;;0.70;0.70;;;23.90;58.30;;;;;;4191753;28;20044;-69
2022/06/17 11:14:50;;;;;;;0.32;0.22;;;23.90;58.30;;;;;;4191857;28;20049;-68
2022/06/17 11:17:17;;;;;;;0.00;0.00;;;24.00;58.30;;;;;;4192277;28;21461;-68
2022/06/17 11:19:42;;;;;;;0.10;0.10;;;24.00;58.20;;;;;;4190369;28;20045;-69
2022/06/17 11:22:04;;;;;;;0.00;0.00;;;24.00;58.10;;;;;;4191708;28;20048;-69
2022/06/17 11:24:42;;;;;;;0.00;0.00;;;24.10;58.20;;;;;;4191930;28;20504;-69
2022/06/17 11:27:12;;;;;;;0.73;0.57;;;24.10;58.00;;;;;;4190265;28;20147;-69
2022/06/17 11:29:39;;;;;;;0.45;0.45;;;24.10;57.90;;;;;;4190478;28;20140;-69
2022/06/17 11:32:13;;;;;;;0.00;0.00;;;24.20;57.90;;;;;;4191605;28;20075;-69
2022/06/17 11:34:48;;;;;;;0.20;0.20;;;24.20;57.80;;;;;;4191696;28;20048;-69
2022/06/17 11:37:18;;;;;;;0.10;0.10;;;24.30;57.70;;;;;;4175114;28;20052;-69
2022/06/17 11:39:41;;;;;;;0.28;0.28;;;24.30;57.60;;;;;;4171873;28;20103;-69
2022/06/17 11:42:15;;;;;;;0.30;0.30;;;24.40;57.50;;;;;;4174911;28;20083;-69
2022/06/17 11:44:37;;;;;;;0.00;0.00;;;24.40;57.40;;;;;;4167787;28;20123;-69
2022/06/17 11:47:02;;;;;;;0.10;0.10;;;24.50;57.30;;;;;;4174754;28;20061;-69
2022/06/17 11:49:26;;;;;;;0.00;0.00;;;24.50;57.20;;;;;;4175524;28;20076;-69
2022/06/17 11:51:51;;;;;;;1.20;1.10;;;24.50;57.10;;;;;;4175325;28;20059;-69
2022/06/17 11:54:20;;;;;;;0.05;0.05;;;24.60;56.90;;;;;;4158413;28;20387;-69
2022/06/17 11:56:46;;;;;;;1.75;1.65;;;24.70;56.90;;;;;;4162512;28;20111;-69
2022/06/17 11:59:13;;;;;;;0.30;0.30;;;24.70;56.70;;;;;;4178925;28;20059;-69
2022/06/17 12:01:36;;;;;;;0.15;0.15;;;24.70;57.30;;;;;;4191591;28;20122;-70
2022/06/17 12:04:00;;;;;;;0.00;0.00;;;24.70;56.50;;;;;;4180411;28;20045;-69
2022/06/17 12:06:27;;;;;;;0.00;0.00;;;24.80;56.50;;;;;;4186526;28;20060;-69
2022/06/17 12:08:56;;;;;;;0.45;0.45;;;24.80;56.40;;;;;;4175438;28;20482;-67
2022/06/17 12:11:27;;;;;;;0.00;0.00;;;24.90;57.10;;;;;;4160199;28;20119;-69
2022/06/17 12:13:55;;;;;;;0.28;0.28;;;24.90;56.30;;;;;;4173111;28;20188;-68
2022/06/17 12:16:23;;;;;;;0.00;0.00;;;24.90;56.90;;;;;;4174594;28;20045;-68
2022/06/17 12:18:48;;;;;;;0.55;0.55;;;24.90;56.10;;;;;;4178621;28;20136;-68
2022/06/17 12:21:25;;;;;;;0.30;0.30;;;25.00;56.10;;;;;;4194484;28;20371;-68
2022/06/17 12:23:51;;;;;;;0.32;0.32;;;25.00;56.10;;;;;;4177590;28;20049;-69
2022/06/17 12:26:20;;;;;;;0.38;0.38;;;25.00;56.00;;;;;;4144659;28;20077;-68
2022/06/17 12:28:53;;;;;;;0.10;0.10;;;25.00;55.90;;;;;;4144174;28;20049;-68
2022/06/17 12:31:32;;;;;;;0.00;0.00;;;25.00;55.80;;;;;;4176955;28;20468;-70
2022/06/17 12:34:09;;;;;;;0.25;0.25;;;25.00;55.80;;;;;;4192552;28;20047;-69
2022/06/17 12:36:37;;;;;;;0.35;0.32;;;25.10;55.80;;;;;;4191769;28;20048;-69
2022/06/17 12:39:07;;;;;;;0.47;0.47;;;25.10;55.80;;;;;;4179787;28;20130;-68
2022/06/17 12:41:37;;;;;;;0.10;0.10;;;25.10;55.80;;;;;;4187886;28;20060;-69
2022/06/17 12:44:12;;;;;;;0.00;0.00;;;25.10;55.80;;;;;;4177504;28;20051;-69
2022/06/17 12:46:40;;;;;;;0.10;0.10;;;25.10;55.80;;;;;;4177201;28;20491;-71
2022/06/17 12:54:43;;;;;;;0.10;0.10;;;25.20;55.90;;;;;;4193779;28;20066;-70
2022/06/17 12:57:12;;;;;;;0.15;0.15;;;25.20;55.80;;;;;;4192122;27;20048;-69
2022/06/17 12:59:48;;;;;;;5.40;0.90;;;25.20;55.80;;;;;;4193186;28;20488;-70
2022/06/17 13:02:15;;;;;;;0.00;0.00;;;25.30;55.80;;;;;;4193461;28;20083;-70
2022/06/17 13:05:14;;;;;;;0.00;0.00;;;25.30;55.60;;;;;;4193876;28;20048;-70